Queen Charlotte, Canada
Current Conditions -  °F | °C
As of 10:16 AM on Saturday 22 Nov 2014 (Local Time) from CYZP Reporting Station
Light Rain Light Rain  
Wind Chill: 37°   Ceiling: Unl
Heat Index: 43°   Visibility: 9mi
Dew Point: 41°   Wind: 9mph
Humidity: 93%   Direction: 170°S
Pressure: 29.53"   Gusts: NA
Location:  53.25°N, 132.09°W
Report Text: CYZP 221816Z AUTO 17008KT 9SM -RA FEW040 SCT190 06/05 A2953 RMK SLP000
Loading
Personal Weather Stations






























Interactive Weather Map New forecast layout! Learn more

10-Day Weather Forecast

Advertisements
Track Severe Weather on mobile